Terminal Aerodrome Forecast
Issued by NWS Upton, NY

Home | Current Version | Previous Version | Text Only | Print | Product List | Glossary On
Versions: 1 2 3 4 5 6 7 8 9 10 11 12 13 14 15 16 17 18 19 20 21 22 23 24 25 26 27 28 29 30 31 32 33 34 35
000
FTUS41 KOKX 261934 AAA
TAFJFK
TAF AMD
KJFK 261934Z 2620/2724 19013KT P6SM SCT070 SCT250
     FM270300 20006KT P6SM FEW250
     FM271200 24005KT P6SM SCT070
     FM271400 23007KT P6SM BKN130
     FM271700 22011G18KT P6SM BKN120
     FM272300 25012G19KT P6SM SCT200=

USA.gov is the U.S. government's official web portal to all federal, state and local government web resources and services.